Time;durP1;ratioP1;P1;durP2;ratioP2;P2;SDS_P1;SDS_P2;PMS_P1;PMS_P2;Temp;Humidity;BMP_temperature;BMP_pressure;BME280_temperature;BME280_humidity;BME280_pressure;Samples;Min_cycle;Max_cycle;Signal;HPM_P1;HPM_P2
2023/01/04 00:01:42;;;;;;;10.23;3.53;;;7.90;99.90;;;;;;5121123;28;20051;-63
2023/01/04 00:04:09;;;;;;;16.08;3.60;;;7.90;99.90;;;;;;5123218;28;20260;-61
2023/01/04 00:06:34;;;;;;;12.40;3.50;;;7.90;99.90;;;;;;5123492;27;20047;-62
2023/01/04 00:09:00;;;;;;;12.40;4.13;;;8.00;99.90;;;;;;5122310;28;20108;-62
2023/01/04 00:11:27;;;;;;;15.65;3.47;;;7.90;99.90;;;;;;5120867;28;20043;-59
2023/01/04 00:13:57;;;;;;;10.45;3.38;;;8.00;99.90;;;;;;5124985;27;20063;-60
2023/01/04 00:16:24;;;;;;;13.93;4.20;;;8.00;99.90;;;;;;5127298;27;20114;-63
2023/01/04 00:18:51;;;;;;;8.40;3.22;;;8.00;99.90;;;;;;5125793;27;20043;-60
2023/01/04 00:21:21;;;;;;;13.00;3.50;;;8.00;99.90;;;;;;5119645;27;20134;-60
2023/01/04 00:23:49;;;;;;;13.43;3.95;;;8.00;99.90;;;;;;5127222;27;20043;-62
2023/01/04 00:26:18;;;;;;;10.32;3.60;;;8.00;99.90;;;;;;5126992;27;20417;-63
2023/01/04 00:28:44;;;;;;;11.23;3.90;;;8.00;99.90;;;;;;5106200;28;20043;-62
2023/01/04 00:31:11;;;;;;;9.40;3.88;;;8.00;99.90;;;;;;5097313;27;20043;-61
2023/01/04 00:33:57;;;;;;;10.70;3.50;;;8.00;99.90;;;;;;5126567;27;20155;-62
2023/01/04 00:36:23;;;;;;;13.27;4.47;;;8.00;99.90;;;;;;5126778;27;20436;-60
2023/01/04 00:39:08;;;;;;;15.00;3.67;;;8.00;99.90;;;;;;5126459;27;20580;-62
2023/01/04 00:41:47;;;;;;;15.23;3.85;;;8.00;99.90;;;;;;5124123;27;20108;-61
2023/01/04 00:44:14;;;;;;;17.30;4.10;;;8.00;99.90;;;;;;5126709;27;20042;-61
2023/01/04 00:46:40;;;;;;;13.70;3.75;;;8.00;99.90;;;;;;5123950;27;20035;-62
2023/01/04 00:49:08;;;;;;;11.48;3.78;;;7.90;99.90;;;;;;5105761;28;20082;-59
2023/01/04 00:51:35;;;;;;;13.57;4.20;;;7.90;99.90;;;;;;5083705;28;20056;-59
2023/01/04 00:54:02;;;;;;;14.27;4.45;;;7.80;99.90;;;;;;5093179;28;20055;-63
2023/01/04 00:56:29;;;;;;;13.40;5.15;;;7.80;99.90;;;;;;5104777;28;20043;-62
2023/01/04 00:59:00;;;;;;;11.15;4.72;;;7.80;99.90;;;;;;5105538;28;20054;-62
2023/01/04 01:01:27;;;;;;;15.45;4.07;;;7.80;99.90;;;;;;5104198;28;20032;-65
2023/01/04 01:03:55;;;;;;;17.40;4.70;;;7.80;99.90;;;;;;5104423;28;20047;-65
2023/01/04 01:06:21;;;;;;;11.95;4.50;;;7.70;99.90;;;;;;5103084;28;20067;-60
2023/01/04 01:08:47;;;;;;;14.40;4.60;;;7.70;99.90;;;;;;5105879;28;20092;-64
2023/01/04 01:11:12;;;;;;;13.68;4.35;;;7.70;99.90;;;;;;5104595;28;20623;-64
2023/01/04 01:13:39;;;;;;;11.45;4.32;;;7.70;99.90;;;;;;5105041;28;20552;-63
2023/01/04 01:16:06;;;;;;;15.77;4.47;;;7.70;99.90;;;;;;5103985;28;20035;-65
2023/01/04 01:18:36;;;;;;;11.18;3.70;;;7.70;99.90;;;;;;5104519;28;20398;-61
2023/01/04 01:21:07;;;;;;;14.25;4.25;;;7.70;99.90;;;;;;5103866;28;20123;-65
2023/01/04 01:23:32;;;;;;;11.10;4.75;;;7.70;99.90;;;;;;5104460;28;20040;-63
2023/01/04 01:26:02;;;;;;;15.20;4.60;;;7.70;99.90;;;;;;5098134;28;20118;-64
2023/01/04 01:28:28;;;;;;;14.52;4.40;;;7.70;99.90;;;;;;5103291;28;20047;-67
2023/01/04 01:30:54;;;;;;;11.70;4.18;;;7.70;99.90;;;;;;5103444;28;20071;-64
2023/01/04 01:33:19;;;;;;;12.32;3.92;;;7.70;99.90;;;;;;5103823;28;20123;-64
2023/01/04 01:35:45;;;;;;;11.05;3.50;;;7.70;99.90;;;;;;5104293;28;20036;-65
2023/01/04 01:38:10;;;;;;;11.13;3.90;;;7.70;99.90;;;;;;5103405;28;20122;-64
2023/01/04 01:40:40;;;;;;;12.00;4.05;;;7.80;99.90;;;;;;5088005;28;20425;-65
2023/01/04 01:43:18;;;;;;;11.95;3.85;;;7.80;99.90;;;;;;5071311;28;20063;-63
2023/01/04 01:45:45;;;;;;;12.73;3.95;;;7.80;99.90;;;;;;5089429;28;20089;-64
2023/01/04 01:48:17;;;;;;;10.63;4.65;;;7.80;99.90;;;;;;5103575;28;20070;-63
2023/01/04 01:51:00;;;;;;;9.98;3.80;;;7.80;99.90;;;;;;5117958;27;20068;-64
2023/01/04 01:53:28;;;;;;;10.35;4.10;;;7.80;99.90;;;;;;5126297;27;20046;-64
2023/01/04 01:55:56;;;;;;;9.55;3.38;;;7.80;99.90;;;;;;5111259;27;20126;-63
2023/01/04 01:58:30;;;;;;;8.65;3.92;;;7.80;99.90;;;;;;5127091;27;20055;-61
2023/01/04 02:00:56;;;;;;;14.85;4.35;;;7.80;99.90;;;;;;5145742;27;20042;-63
2023/01/04 02:03:28;;;;;;;12.85;4.38;;;7.80;99.90;;;;;;5145992;27;20825;-61
2023/01/04 02:05:56;;;;;;;11.50;4.00;;;7.80;99.90;;;;;;5128284;27;20114;-61
2023/01/04 02:08:22;;;;;;;9.55;3.95;;;7.70;99.90;;;;;;5127292;27;20417;-63
2023/01/04 02:10:48;;;;;;;10.02;3.80;;;7.80;99.90;;;;;;5127064;27;20039;-63
2023/01/04 02:13:18;;;;;;;9.68;4.05;;;7.70;99.90;;;;;;5145443;27;20038;-63
2023/01/04 02:16:07;;;;;;;7.97;3.58;;;7.80;99.90;;;;;;5126709;27;20034;-62
2023/01/04 02:18:43;;;;;;;12.88;4.40;;;7.80;99.90;;;;;;5126788;27;20047;-62
2023/01/04 02:21:19;;;;;;;9.77;3.85;;;7.80;99.90;;;;;;5127505;27;20035;-61
2023/01/04 02:24:24;;;;;;;9.30;3.90;;;7.80;99.90;;;;;;5146551;27;20035;-63
2023/01/04 02:27:20;;;;;;;7.13;3.25;;;7.80;99.90;;;;;;5090818;27;20043;-61
2023/01/04 02:30:19;;;;;;;6.90;2.97;;;7.80;99.90;;;;;;5146300;27;20050;-62
2023/01/04 02:32:56;;;;;;;6.80;2.80;;;7.90;99.90;;;;;;5095816;27;20124;-61
2023/01/04 02:35:48;;;;;;;8.15;3.20;;;7.90;99.90;;;;;;5127123;27;20105;-61
2023/01/04 02:38:19;;;;;;;11.30;3.28;;;7.90;99.90;;;;;;5126405;27;20046;-62
2023/01/04 02:41:33;;;;;;;8.73;3.08;;;7.90;99.90;;;;;;5145766;27;20042;-63
2023/01/04 02:50:29;;;;;;;8.73;2.80;;;8.00;99.90;;;;;;5140122;27;20035;-61
2023/01/04 02:50:32;;;;;;;7.35;2.63;;;8.00;99.90;;;;;;5145459;27;20054;-60
2023/01/04 02:53:09;;;;;;;7.70;2.83;;;8.00;99.90;;;;;;5125596;27;20054;-58
2023/01/04 02:55:48;;;;;;;7.65;2.67;;;8.00;99.90;;;;;;5127365;27;20047;-60
2023/01/04 02:58:35;;;;;;;6.65;2.75;;;8.00;99.90;;;;;;5125439;27;20605;-62
2023/01/04 03:07:24;;;;;;;6.25;2.67;;;8.00;99.90;;;;;;5105989;27;20231;-61
2023/01/04 03:09:59;;;;;;;6.80;2.80;;;8.10;99.90;;;;;;5139298;27;20482;-62
2023/01/04 03:12:30;;;;;;;9.70;2.65;;;8.10;99.90;;;;;;5144374;27;20083;-61
2023/01/04 03:15:20;;;;;;;8.95;2.70;;;8.10;99.90;;;;;;5145263;27;20039;-59
2023/01/04 03:17:56;;;;;;;7.22;2.45;;;8.10;99.90;;;;;;5133580;27;20054;-60
2023/01/04 03:20:24;;;;;;;6.95;2.55;;;8.10;99.90;;;;;;5126289;27;20073;-60
2023/01/04 03:37:31;;;;;;;5.95;2.45;;;8.30;99.90;;;;;;5133500;27;20106;-63
2023/01/04 03:49:14;;;;;;;5.07;1.90;;;8.50;99.90;;;;;;5145372;27;20501;-59
2023/01/04 03:51:41;;;;;;;5.03;1.85;;;8.60;99.90;;;;;;5148257;27;20070;-62
2023/01/04 03:54:16;;;;;;;5.88;2.15;;;8.70;99.90;;;;;;5146181;27;20419;-60
2023/01/04 03:56:43;;;;;;;308.25;45.60;;;8.70;99.90;;;;;;5130217;27;20438;-63
2023/01/04 03:59:11;;;;;;;4.70;1.77;;;8.80;99.90;;;;;;5149146;27;20038;-61
2023/01/04 04:01:37;;;;;;;4.47;1.73;;;8.80;99.90;;;;;;5129460;27;20794;-62
2023/01/04 04:09:31;;;;;;;3.72;1.63;;;9.00;99.90;;;;;;5148044;27;20042;-60
2023/01/04 04:11:57;;;;;;;4.90;2.22;;;9.10;99.90;;;;;;5128967;27;20046;-60
2023/01/04 04:14:23;;;;;;;7.05;2.00;;;9.20;99.90;;;;;;5130077;27;20038;-58
2023/01/04 04:16:49;;;;;;;4.85;2.20;;;9.20;99.90;;;;;;5147151;27;20385;-61
2023/01/04 04:19:14;;;;;;;4.03;1.80;;;9.20;99.90;;;;;;5148839;27;20053;-60
2023/01/04 04:21:40;;;;;;;5.90;2.10;;;9.30;99.90;;;;;;5148443;27;20039;-63
2023/01/04 04:24:06;;;;;;;4.40;1.88;;;9.30;99.90;;;;;;5129901;27;20038;-61
2023/01/04 04:26:31;;;;;;;5.10;1.95;;;9.30;99.90;;;;;;5129244;27;20509;-62
2023/01/04 04:28:57;;;;;;;22.40;14.98;;;9.40;99.90;;;;;;5130156;27;20126;-63
2023/01/04 04:31:22;;;;;;;1.10;0.63;;;9.50;99.90;;;;;;5142963;27;20110;-62
2023/01/04 04:33:48;;;;;;;0.82;0.70;;;9.50;99.90;;;;;;5109358;27;20374;-60
2023/01/04 04:36:14;;;;;;;7.28;6.68;;;9.50;99.90;;;;;;5148284;27;20155;-63
2023/01/04 04:38:39;;;;;;;4.60;1.88;;;9.60;99.90;;;;;;5129442;27;20085;-62
2023/01/04 04:43:54;;;;;;;16.50;15.45;;;9.70;99.90;;;;;;5127422;27;20047;-62
2023/01/04 04:46:19;;;;;;;4.68;2.10;;;9.70;99.90;;;;;;5118311;27;20046;-63
2023/01/04 04:48:45;;;;;;;5.32;2.10;;;9.70;99.90;;;;;;5147182;27;20065;-59
2023/01/04 04:51:10;;;;;;;6.65;2.83;;;9.80;99.90;;;;;;5147921;27;20512;-62
2023/01/04 04:53:36;;;;;;;4.70;2.30;;;9.80;99.90;;;;;;5129114;27;20050;-61
2023/01/04 04:56:02;;;;;;;84.43;78.45;;;9.80;99.90;;;;;;5147266;27;20049;-61
2023/01/04 04:58:27;;;;;;;7.00;2.90;;;9.90;99.90;;;;;;5128524;27;20069;-62
2023/01/04 05:00:53;;;;;;;4.75;2.45;;;9.90;99.90;;;;;;5145860;27;20034;-62
2023/01/04 05:03:19;;;;;;;4.85;2.17;;;9.90;99.90;;;;;;5128177;27;20043;-63
2023/01/04 05:05:44;;;;;;;5.32;2.40;;;9.90;99.90;;;;;;5148063;27;20042;-61
2023/01/04 05:08:10;;;;;;;4.53;2.40;;;10.00;99.90;;;;;;5128095;27;20042;-63
2023/01/04 05:10:36;;;;;;;6.05;2.58;;;10.00;99.90;;;;;;5129119;27;20042;-63
2023/01/04 05:13:04;;;;;;;5.68;2.60;;;10.00;99.90;;;;;;5147091;27;20076;-62
2023/01/04 05:15:39;;;;;;;118.63;54.17;;;10.00;99.90;;;;;;5147423;27;20090;-61
2023/01/04 05:18:05;;;;;;;;;;;10.10;99.90;;;;;;5128592;27;20600;-58
2023/01/04 05:20:31;;;;;;;5.68;2.40;;;10.20;99.90;;;;;;5147814;27;19923;-60
2023/01/04 05:22:57;;;;;;;6.32;2.70;;;10.20;99.90;;;;;;5128811;27;20050;-61
2023/01/04 05:25:22;;;;;;;5.65;2.58;;;10.30;99.90;;;;;;5127673;27;20046;-60
2023/01/04 05:27:48;;;;;;;565.45;89.13;;;10.20;99.90;;;;;;5146393;27;20565;-60
2023/01/04 05:33:00;;;;;;;5.00;2.20;;;10.30;99.90;;;;;;5136503;27;20046;-61
2023/01/04 05:35:26;;;;;;;5.80;2.58;;;10.40;99.90;;;;;;5128714;27;20067;-61
2023/01/04 05:37:52;;;;;;;5.75;2.28;;;10.40;99.90;;;;;;5127257;27;20121;-61
2023/01/04 05:40:18;;;;;;;5.75;2.67;;;10.40;99.90;;;;;;5147219;27;20122;-58
2023/01/04 05:42:44;;;;;;;5.75;2.47;;;10.50;99.90;;;;;;5146123;27;20050;-61
2023/01/04 05:45:09;;;;;;;5.63;2.65;;;10.50;99.90;;;;;;5128286;27;20485;-59
2023/01/04 05:47:35;;;;;;;4.65;2.13;;;10.50;99.90;;;;;;5145305;27;20042;-59
2023/01/04 05:50:02;;;;;;;5.30;2.53;;;10.50;99.90;;;;;;5128258;27;20046;-63
2023/01/04 05:52:28;;;;;;;5.85;2.13;;;10.50;99.90;;;;;;5146939;27;20082;-60
2023/01/04 05:54:54;;;;;;;7.15;2.95;;;10.50;99.90;;;;;;5145818;27;20126;-61
2023/01/04 05:57:19;;;;;;;5.38;2.83;;;10.50;99.90;;;;;;5127867;27;20066;-62
2023/01/04 05:59:45;;;;;;;6.07;3.13;;;10.50;99.90;;;;;;5111000;27;20053;-63
2023/01/04 06:02:17;;;;;;;5.22;2.90;;;10.50;99.90;;;;;;5145189;27;20616;-60
2023/01/04 06:04:43;;;;;;;6.38;2.85;;;10.50;99.90;;;;;;5128176;27;20049;-60
2023/01/04 06:07:09;;;;;;;5.15;2.60;;;10.50;99.90;;;;;;5127992;27;20026;-64
2023/01/04 06:09:34;;;;;;;6.07;2.95;;;10.50;99.90;;;;;;5128113;27;20125;-62
2023/01/04 06:12:00;;;;;;;7.88;3.10;;;10.50;99.90;;;;;;5126790;27;20046;-62
2023/01/04 06:14:25;;;;;;;6.32;3.20;;;10.40;99.90;;;;;;5128075;27;20103;-64
2023/01/04 06:16:51;;;;;;;6.53;3.20;;;10.40;99.90;;;;;;5126281;27;20046;-63
2023/01/04 06:19:16;;;;;;;8.10;3.05;;;10.50;99.90;;;;;;5127460;27;20043;-64
2023/01/04 06:21:42;;;;;;;7.20;3.10;;;10.40;99.90;;;;;;5127557;27;20121;-59
2023/01/04 06:24:10;;;;;;;7.45;2.80;;;10.50;99.90;;;;;;5145198;27;20031;-62
2023/01/04 06:26:36;;;;;;;5.68;2.92;;;10.40;99.90;;;;;;5145383;27;20140;-61
2023/01/04 06:29:01;;;;;;;7.45;2.88;;;10.50;99.90;;;;;;5146204;27;20121;-61
2023/01/04 06:31:27;;;;;;;7.03;2.95;;;10.50;99.90;;;;;;5126865;27;20084;-61
2023/01/04 06:33:52;;;;;;;5.25;2.70;;;10.50;99.90;;;;;;5109493;27;20034;-60
2023/01/04 06:36:18;;;;;;;5.95;2.65;;;10.50;99.90;;;;;;5126541;27;20034;-61
2023/01/04 06:38:43;;;;;;;9.15;3.22;;;10.50;99.90;;;;;;5127170;27;20054;-61
2023/01/04 06:41:09;;;;;;;6.30;2.75;;;10.50;99.90;;;;;;5127437;27;20035;-61
2023/01/04 06:43:34;;;;;;;5.10;2.50;;;10.50;99.90;;;;;;5144995;27;20034;-60
2023/01/04 06:46:00;;;;;;;5.00;2.10;;;10.50;99.90;;;;;;5126442;27;20065;-60
2023/01/04 06:48:26;;;;;;;4.40;1.80;;;10.50;99.90;;;;;;5145017;27;20037;-60
2023/01/04 06:50:52;;;;;;;4.97;2.25;;;10.60;99.90;;;;;;5109647;27;20125;-61
2023/01/04 06:53:17;;;;;;;5.07;2.00;;;10.60;99.90;;;;;;5144688;27;20117;-60
2023/01/04 06:55:44;;;;;;;4.65;1.80;;;10.60;99.90;;;;;;5127210;27;20049;-62
2023/01/04 06:58:09;;;;;;;5.82;2.30;;;10.60;99.90;;;;;;5144864;27;20042;-61
2023/01/04 07:00:35;;;;;;;4.85;2.00;;;10.60;99.90;;;;;;5144580;27;20042;-61
2023/01/04 07:03:00;;;;;;;4.32;1.80;;;10.70;99.90;;;;;;5144492;27;20142;-61
2023/01/04 07:05:26;;;;;;;4.57;1.75;;;10.60;99.90;;;;;;5145505;27;20039;-59
2023/01/04 07:07:52;;;;;;;3.90;1.63;;;10.60;99.90;;;;;;5126968;27;20454;-61
2023/01/04 07:10:17;;;;;;;4.50;2.05;;;10.70;99.90;;;;;;5125543;27;20374;-62
2023/01/04 07:12:43;;;;;;;5.13;1.70;;;10.70;99.90;;;;;;5125827;27;20425;-62
2023/01/04 07:15:09;;;;;;;4.43;1.80;;;10.70;99.90;;;;;;5126899;27;20038;-59
2023/01/04 07:17:34;;;;;;;3.83;1.30;;;10.70;99.90;;;;;;5124536;27;20042;-62
2023/01/04 07:20:00;;;;;;;5.68;1.70;;;10.70;99.90;;;;;;5145399;27;20054;-59
2023/01/04 07:22:26;;;;;;;5.00;1.83;;;10.70;99.90;;;;;;5126672;27;20132;-62
2023/01/04 07:24:51;;;;;;;4.00;1.50;;;10.70;99.90;;;;;;5123428;27;20090;-61
2023/01/04 07:27:17;;;;;;;7.57;1.75;;;10.70;99.90;;;;;;5144832;27;20563;-61
2023/01/04 07:29:43;;;;;;;4.60;1.95;;;10.70;99.90;;;;;;5126829;27;20515;-61
2023/01/04 07:32:09;;;;;;;5.35;1.90;;;10.70;99.90;;;;;;5142254;27;20065;-61
2023/01/04 07:34:36;;;;;;;5.47;2.17;;;10.70;99.90;;;;;;5126539;27;20053;-60
2023/01/04 07:37:02;;;;;;;6.00;1.90;;;10.80;99.90;;;;;;5126538;27;20057;-61
2023/01/04 07:39:27;;;;;;;4.40;1.98;;;10.80;99.90;;;;;;5126196;27;20043;-60
2023/01/04 07:41:53;;;;;;;4.55;1.70;;;10.80;99.90;;;;;;5125482;27;20536;-62
2023/01/04 07:44:20;;;;;;;3.55;1.60;;;10.80;99.90;;;;;;5145443;27;20403;-61
2023/01/04 07:46:46;;;;;;;3.85;1.58;;;10.80;99.90;;;;;;5144647;27;20046;-63
2023/01/04 07:49:15;;;;;;;4.38;1.73;;;10.80;99.90;;;;;;5108707;27;20166;-60
2023/01/04 07:51:41;;;;;;;4.00;1.60;;;10.80;99.90;;;;;;5126338;27;20134;-60
2023/01/04 07:54:08;;;;;;;4.13;1.65;;;10.80;99.90;;;;;;5145241;27;20117;-58
2023/01/04 07:56:33;;;;;;;3.80;1.52;;;10.80;99.90;;;;;;5144146;27;20401;-63
2023/01/04 07:58:59;;;;;;;3.95;1.40;;;10.80;99.90;;;;;;5126498;27;20046;-60
2023/01/04 08:01:25;;;;;;;3.75;1.63;;;10.80;99.90;;;;;;5144461;27;20062;-61
2023/01/04 08:03:52;;;;;;;4.82;1.80;;;10.80;99.90;;;;;;5125600;27;20074;-56
2023/01/04 08:06:19;;;;;;;4.78;1.98;;;10.80;99.90;;;;;;5125221;27;20053;-59
2023/01/04 08:08:45;;;;;;;5.63;2.00;;;10.80;99.90;;;;;;5122266;27;20035;-60
2023/01/04 08:11:13;;;;;;;6.57;1.90;;;10.80;99.90;;;;;;5130571;27;20454;-60
2023/01/04 08:13:40;;;;;;;6.07;2.00;;;10.80;99.90;;;;;;5136747;27;20062;-60
2023/01/04 08:16:06;;;;;;;5.15;1.80;;;10.80;99.90;;;;;;5119803;28;20402;-60
2023/01/04 08:18:32;;;;;;;4.00;1.50;;;10.80;99.90;;;;;;5137499;27;20031;-61
2023/01/04 08:21:07;;;;;;;3.92;1.60;;;10.80;99.90;;;;;;5144540;27;20054;-62
2023/01/04 08:23:35;;;;;;;3.35;1.40;;;10.90;99.90;;;;;;5116703;28;20039;-59
2023/01/04 08:26:09;;;;;;;3.47;1.58;;;10.90;99.90;;;;;;5104174;28;20125;-58
2023/01/04 08:28:35;;;;;;;6.35;1.80;;;10.90;99.90;;;;;;5119506;27;20469;-61
2023/01/04 08:31:25;;;;;;;4.43;1.80;;;10.90;99.90;;;;;;5122768;27;20034;-61
2023/01/04 08:33:51;;;;;;;5.20;1.70;;;10.90;99.90;;;;;;5143000;27;20548;-59
2023/01/04 08:36:26;;;;;;;4.38;1.60;;;10.90;99.90;;;;;;5146472;27;20157;-61
2023/01/04 08:38:55;;;;;;;4.07;1.80;;;10.90;99.90;;;;;;5147777;27;20054;-60
2023/01/04 08:41:20;;;;;;;5.50;2.38;;;10.90;99.90;;;;;;5148398;27;20034;-59
2023/01/04 08:43:46;;;;;;;5.05;1.95;;;10.90;99.90;;;;;;5128646;27;20051;-62
2023/01/04 08:46:13;;;;;;;5.72;2.17;;;10.90;99.90;;;;;;5147794;27;20482;-62
2023/01/04 08:48:39;;;;;;;5.53;2.20;;;10.90;99.90;;;;;;5147592;27;20035;-59
2023/01/04 08:51:10;;;;;;;6.75;2.50;;;10.90;99.90;;;;;;5129388;27;20580;-60
2023/01/04 08:53:35;;;;;;;5.45;2.70;;;10.90;99.90;;;;;;5129308;27;20105;-60
2023/01/04 08:56:02;;;;;;;6.72;3.10;;;10.90;99.90;;;;;;5128662;27;20042;-59
2023/01/04 08:58:30;;;;;;;7.45;3.30;;;10.90;99.90;;;;;;5147279;27;20357;-58
2023/01/04 09:01:01;;;;;;;6.28;3.17;;;10.90;99.90;;;;;;5128422;27;20303;-57
2023/01/04 09:03:27;;;;;;;5.47;2.50;;;10.80;99.90;;;;;;5147195;27;20086;-60
2023/01/04 09:05:53;;;;;;;8.07;2.90;;;10.90;99.90;;;;;;5147845;27;20122;-61
2023/01/04 09:08:18;;;;;;;5.40;2.60;;;10.90;99.90;;;;;;5147048;27;20179;-57
2023/01/04 09:10:44;;;;;;;5.72;2.42;;;10.90;99.90;;;;;;5147974;27;20526;-58
2023/01/04 09:13:09;;;;;;;5.20;2.40;;;10.90;99.90;;;;;;5146785;27;20670;-59
2023/01/04 09:15:35;;;;;;;5.70;2.58;;;10.90;99.90;;;;;;5111773;27;20090;-59
2023/01/04 09:18:02;;;;;;;5.28;2.10;;;11.00;99.90;;;;;;5138202;27;20099;-57
2023/01/04 09:20:27;;;;;;;4.55;1.75;;;10.90;99.90;;;;;;5127330;27;20043;-58
2023/01/04 09:22:55;;;;;;;4.70;1.80;;;10.90;99.90;;;;;;5134612;27;20034;-60
2023/01/04 09:25:20;;;;;;;3.33;1.40;;;11.00;99.90;;;;;;5134381;27;20497;-58
2023/01/04 09:27:46;;;;;;;5.80;1.90;;;11.00;99.90;;;;;;5137725;27;20043;-59
2023/01/04 09:30:12;;;;;;;4.30;1.40;;;11.00;99.90;;;;;;5134109;27;20035;-59
2023/01/04 09:32:37;;;;;;;5.00;1.60;;;11.10;99.90;;;;;;5134180;27;20113;-60
2023/01/04 09:35:03;;;;;;;3.15;1.30;;;11.10;99.90;;;;;;5128011;27;20039;-58
2023/01/04 09:37:28;;;;;;;5.38;1.42;;;11.10;99.90;;;;;;5135263;27;20050;-61
2023/01/04 09:39:54;;;;;;;6.20;1.60;;;11.10;99.90;;;;;;5135778;27;20026;-60
2023/01/04 09:42:22;;;;;;;3.40;1.48;;;11.20;99.90;;;;;;5113417;27;20278;-60
2023/01/04 09:44:51;;;;;;;3.38;1.20;;;11.20;99.90;;;;;;5134731;27;20039;-60
2023/01/04 09:47:20;;;;;;;4.55;1.65;;;11.20;99.90;;;;;;5120573;27;20325;-60
2023/01/04 09:50:17;;;;;;;5.93;1.50;;;11.30;99.90;;;;;;5147016;27;20376;-60
2023/01/04 09:52:56;;;;;;;5.05;1.80;;;11.30;99.90;;;;;;5135903;27;20111;-59
2023/01/04 09:55:36;;;;;;;5.47;2.00;;;11.30;99.90;;;;;;5120832;27;20983;-60
2023/01/04 09:58:15;;;;;;;7.20;2.40;;;11.30;99.90;;;;;;5139517;27;20541;-60
2023/01/04 10:00:48;;;;;;;9.15;2.25;;;11.40;99.90;;;;;;5136639;27;20107;-60
2023/01/04 10:03:20;;;;;;;7.60;2.30;;;11.40;99.90;;;;;;5139270;27;20402;-60
2023/01/04 10:05:46;;;;;;;5.20;2.10;;;11.40;99.90;;;;;;5132337;27;20070;-61
2023/01/04 10:08:16;;;;;;;7.88;2.67;;;11.40;99.90;;;;;;5141273;27;20374;-61
2023/01/04 10:11:11;;;;;;;10.60;2.75;;;11.40;99.90;;;;;;5123347;27;20042;-56
2023/01/04 10:14:01;;;;;;;12.15;2.97;;;11.40;99.90;;;;;;5089683;27;20052;-60
2023/01/04 10:16:41;;;;;;;8.88;2.53;;;11.40;99.90;;;;;;5121863;27;20087;-59
2023/01/04 10:19:19;;;;;;;11.00;2.53;;;11.40;99.90;;;;;;5132576;27;20034;-61
2023/01/04 10:22:07;;;;;;;9.60;2.80;;;11.50;99.90;;;;;;5125623;27;20741;-61
2023/01/04 10:24:55;;;;;;;12.27;3.03;;;11.50;99.90;;;;;;5133510;27;20087;-59
2023/01/04 10:27:41;;;;;;;13.05;3.05;;;11.60;99.90;;;;;;5134071;27;20118;-61
2023/01/04 10:30:36;;;;;;;15.90;3.55;;;11.60;99.90;;;;;;5127028;27;20750;-60
2023/01/04 10:33:13;;;;;;;12.55;2.90;;;11.70;99.90;;;;;;5138068;27;20457;-60
2023/01/04 10:35:42;;;;;;;21.60;2.88;;;11.70;99.90;;;;;;5137917;27;20034;-59
2023/01/04 10:38:23;;;;;;;18.80;3.75;;;11.70;99.90;;;;;;5141491;27;20091;-62
2023/01/04 10:40:49;;;;;;;18.17;3.35;;;11.70;99.90;;;;;;5138090;27;20050;-61
2023/01/04 10:43:53;;;;;;;20.98;4.22;;;11.70;99.90;;;;;;5130609;27;20083;-61
2023/01/04 10:46:27;;;;;;;19.83;4.50;;;11.70;99.90;;;;;;5125160;27;20051;-60
2023/01/04 10:49:20;;;;;;;23.27;4.38;;;11.70;99.90;;;;;;5136063;27;20043;-62
2023/01/04 10:51:58;;;;;;;20.73;4.63;;;11.70;99.90;;;;;;5125165;27;20058;-63
2023/01/04 10:54:32;;;;;;;21.00;4.47;;;11.80;99.90;;;;;;5145476;27;20034;-60
2023/01/04 10:57:13;;;;;;;27.63;4.43;;;11.80;99.90;;;;;;5144503;27;20039;-63
2023/01/04 10:59:50;;;;;;;27.58;5.10;;;11.80;99.90;;;;;;5143635;27;20482;-61
2023/01/04 11:02:34;;;;;;;31.70;5.13;;;11.80;99.90;;;;;;5120145;27;20066;-61
2023/01/04 11:05:18;;;;;;;26.80;5.13;;;11.80;99.90;;;;;;5113973;27;20034;-65
2023/01/04 11:07:56;;;;;;;25.92;4.35;;;11.90;99.90;;;;;;5116720;27;20053;-62
2023/01/04 11:10:35;;;;;;;24.75;5.88;;;11.90;99.90;;;;;;5142458;27;20049;-59
2023/01/04 11:13:01;;;;;;;28.52;4.78;;;12.00;99.90;;;;;;5138703;27;20050;-61
2023/01/04 11:15:27;;;;;;;26.80;5.18;;;11.90;99.90;;;;;;5144960;27;20031;-61
2023/01/04 11:17:54;;;;;;;38.25;5.82;;;12.00;99.90;;;;;;5141119;27;20034;-59
2023/01/04 11:20:19;;;;;;;28.05;5.85;;;12.00;99.90;;;;;;5110745;27;20035;-60
2023/01/04 11:22:53;;;;;;;28.10;5.30;;;12.00;99.90;;;;;;5098673;27;20038;-60
2023/01/04 11:25:21;;;;;;;31.52;5.53;;;12.00;99.90;;;;;;5098792;27;20065;-60
2023/01/04 11:27:59;;;;;;;27.40;4.97;;;12.10;99.90;;;;;;5125378;27;20110;-59
2023/01/04 11:30:31;;;;;;;26.60;4.88;;;12.00;99.90;;;;;;5114905;27;20043;-59
2023/01/04 11:33:27;;;;;;;35.10;6.20;;;11.90;99.90;;;;;;5118530;27;20049;-59
2023/01/04 11:35:57;;;;;;;30.00;5.35;;;11.90;99.90;;;;;;5113544;27;20046;-59
2023/01/04 11:38:28;;;;;;;30.10;4.75;;;11.90;99.90;;;;;;5095624;27;20475;-60
2023/01/04 11:41:17;;;;;;;37.53;6.10;;;11.80;99.90;;;;;;5135370;27;20050;-60
2023/01/04 11:43:56;;;;;;;31.23;6.72;;;11.90;99.90;;;;;;5089914;28;20041;-60
2023/01/04 11:46:23;;;;;;;28.88;6.30;;;11.90;99.90;;;;;;5127112;27;20258;-61
2023/01/04 11:48:50;;;;;;;26.52;4.70;;;11.90;99.90;;;;;;5126111;27;20035;-62
2023/01/04 11:51:35;;;;;;;29.08;6.13;;;11.90;99.90;;;;;;5113179;27;20376;-59
2023/01/04 11:54:13;;;;;;;23.83;4.40;;;12.00;99.90;;;;;;5124235;28;20039;-60
2023/01/04 11:56:55;;;;;;;26.50;4.68;;;12.00;99.90;;;;;;5112046;27;20039;-59
2023/01/04 11:59:21;;;;;;;22.05;4.78;;;12.00;99.90;;;;;;5145091;27;20039;-61
2023/01/04 12:01:49;;;;;;;28.65;4.60;;;12.10;99.90;;;;;;5143194;27;20053;-60
2023/01/04 12:04:20;;;;;;;31.52;5.50;;;12.00;99.90;;;;;;5125322;27;20516;-59
2023/01/04 12:06:49;;;;;;;24.00;4.30;;;12.10;99.90;;;;;;5126207;27;20122;-61
2023/01/04 12:09:17;;;;;;;18.02;5.10;;;12.10;99.90;;;;;;5126842;27;20106;-60
2023/01/04 12:11:49;;;;;;;22.77;4.68;;;12.10;99.90;;;;;;5146506;27;20047;-61
2023/01/04 12:14:36;;;;;;;20.05;4.55;;;12.10;99.90;;;;;;5149023;27;20088;-60
2023/01/04 12:17:19;;;;;;;25.98;4.63;;;12.10;99.90;;;;;;5147476;27;20607;-61
2023/01/04 12:19:46;;;;;;;22.33;4.25;;;12.10;99.90;;;;;;5109551;27;20123;-60
2023/01/04 12:22:36;;;;;;;25.88;4.55;;;12.10;99.90;;;;;;5127913;27;20043;-62
2023/01/04 12:25:06;;;;;;;19.48;4.25;;;12.10;99.90;;;;;;5129282;27;20031;-61
2023/01/04 12:27:33;;;;;;;23.30;3.97;;;12.10;99.90;;;;;;5141395;27;20035;-61
2023/01/04 12:30:02;;;;;;;17.85;3.38;;;12.10;99.90;;;;;;5137750;27;20552;-60
2023/01/04 12:32:27;;;;;;;19.50;3.47;;;12.10;99.90;;;;;;5120060;27;20074;-60
2023/01/04 12:34:53;;;;;;;20.83;3.42;;;12.10;99.90;;;;;;5138729;27;20108;-59
2023/01/04 12:37:44;;;;;;;14.60;3.33;;;12.10;99.90;;;;;;5137156;27;20532;-59
2023/01/04 12:40:44;;;;;;;15.98;2.92;;;12.10;99.90;;;;;;5140332;27;20042;-61
2023/01/04 12:43:15;;;;;;;16.90;2.95;;;12.10;99.90;;;;;;5138084;27;20039;-62
2023/01/04 12:45:42;;;;;;;14.65;2.30;;;12.10;99.90;;;;;;5138449;27;20474;-58
2023/01/04 12:51:20;;;;;;;16.85;2.72;;;12.10;99.90;;;;;;5138220;27;20483;-62
2023/01/04 12:53:49;;;;;;;11.60;2.60;;;12.10;99.90;;;;;;5138432;27;20035;-62
2023/01/04 12:56:15;;;;;;;8.10;2.00;;;12.10;99.90;;;;;;5119439;27;20045;-60
2023/01/04 12:58:41;;;;;;;13.43;2.70;;;12.00;99.90;;;;;;5138895;27;20035;-59
2023/01/04 13:01:09;;;;;;;12.98;2.33;;;12.00;99.90;;;;;;5120888;27;20128;-59
2023/01/04 13:03:45;;;;;;;9.65;2.88;;;12.00;99.90;;;;;;5139791;27;20042;-61
2023/01/04 13:06:12;;;;;;;11.65;2.28;;;12.00;99.90;;;;;;5138013;27;20035;-61
2023/01/04 13:08:40;;;;;;;8.90;1.80;;;12.00;99.90;;;;;;5136781;27;20058;-59
2023/01/04 13:11:23;;;;;;;9.63;2.28;;;12.00;99.90;;;;;;5137714;27;20030;-59
2023/01/04 13:13:59;;;;;;;16.02;2.17;;;12.00;99.90;;;;;;5137742;27;20110;-59
2023/01/04 13:17:04;;;;;;;11.70;2.42;;;12.00;99.90;;;;;;5140730;27;20066;-60
2023/01/04 13:19:30;;;;;;;12.93;2.72;;;12.00;99.90;;;;;;5138622;27;20035;-59
2023/01/04 13:21:56;;;;;;;15.50;2.50;;;12.00;99.90;;;;;;5136598;27;20139;-60
2023/01/04 13:24:33;;;;;;;13.60;2.63;;;12.00;99.90;;;;;;5136838;27;20054;-60
2023/01/04 13:27:09;;;;;;;21.45;3.08;;;12.00;99.90;;;;;;5119716;27;20099;-58
2023/01/04 13:29:35;;;;;;;13.45;2.97;;;11.90;99.90;;;;;;5106980;27;20114;-59
2023/01/04 13:32:10;;;;;;;15.52;2.83;;;11.90;99.90;;;;;;5135290;27;20031;-60
2023/01/04 13:34:42;;;;;;;16.02;3.70;;;11.90;99.90;;;;;;5116744;27;20043;-57
2023/01/04 13:37:10;;;;;;;26.65;3.60;;;11.90;99.90;;;;;;5134730;27;20035;-60
2023/01/04 13:39:50;;;;;;;19.17;3.53;;;12.00;99.90;;;;;;5136090;27;20038;-59
2023/01/04 13:42:38;;;;;;;22.83;4.03;;;12.00;99.90;;;;;;5134922;27;20107;-60
2023/01/04 13:45:32;;;;;;;21.95;3.75;;;12.00;99.90;;;;;;5130810;27;20407;-61
2023/01/04 13:48:01;;;;;;;22.58;3.78;;;12.00;99.90;;;;;;5130836;27;20046;-60
2023/01/04 13:50:29;;;;;;;21.42;4.35;;;12.00;99.90;;;;;;5135165;27;20062;-59
2023/01/04 13:52:54;;;;;;;20.90;4.40;;;12.00;99.90;;;;;;5117184;27;20060;-60